sensor_id;sensor_type;location;lat;lon;timestamp;P1;durP1;ratioP1;P2;durP2;ratioP2
35646;SDS011;28680;45.642;13.756;2024-01-15T00:00:07;105.07;;;52.50;;
35646;SDS011;28680;45.642;13.756;2024-01-15T00:02:36;107.10;;;55.30;;
35646;SDS011;28680;45.642;13.756;2024-01-15T00:05:02;109.28;;;54.08;;
35646;SDS011;28680;45.642;13.756;2024-01-15T00:07:28;107.07;;;54.97;;
35646;SDS011;28680;45.642;13.756;2024-01-15T00:09:54;112.95;;;57.95;;
35646;SDS011;28680;45.642;13.756;2024-01-15T00:12:20;114.28;;;58.53;;
35646;SDS011;28680;45.642;13.756;2024-01-15T00:14:45;108.55;;;55.50;;
35646;SDS011;28680;45.642;13.756;2024-01-15T00:17:11;116.60;;;59.15;;
35646;SDS011;28680;45.642;13.756;2024-01-15T00:19:38;114.07;;;57.20;;
35646;SDS011;28680;45.642;13.756;2024-01-15T00:22:04;106.40;;;55.40;;
35646;SDS011;28680;45.642;13.756;2024-01-15T00:24:30;117.15;;;56.70;;
35646;SDS011;28680;45.642;13.756;2024-01-15T00:26:56;113.53;;;55.75;;
35646;SDS011;28680;45.642;13.756;2024-01-15T00:29:24;109.60;;;54.38;;
35646;SDS011;28680;45.642;13.756;2024-01-15T00:31:49;110.47;;;54.55;;
35646;SDS011;28680;45.642;13.756;2024-01-15T00:34:15;114.18;;;55.80;;
35646;SDS011;28680;45.642;13.756;2024-01-15T00:36:41;105.28;;;54.42;;
35646;SDS011;28680;45.642;13.756;2024-01-15T00:39:07;107.88;;;56.03;;
35646;SDS011;28680;45.642;13.756;2024-01-15T00:41:33;109.13;;;55.28;;
35646;SDS011;28680;45.642;13.756;2024-01-15T00:43:58;110.47;;;56.75;;
35646;SDS011;28680;45.642;13.756;2024-01-15T00:46:24;114.10;;;55.60;;
35646;SDS011;28680;45.642;13.756;2024-01-15T00:48:50;112.43;;;57.70;;
35646;SDS011;28680;45.642;13.756;2024-01-15T00:51:16;115.47;;;57.05;;
35646;SDS011;28680;45.642;13.756;2024-01-15T00:53:41;113.57;;;58.15;;
35646;SDS011;28680;45.642;13.756;2024-01-15T00:56:07;107.07;;;54.30;;
35646;SDS011;28680;45.642;13.756;2024-01-15T00:58:33;102.68;;;51.28;;
35646;SDS011;28680;45.642;13.756;2024-01-15T01:00:58;101.97;;;52.58;;
35646;SDS011;28680;45.642;13.756;2024-01-15T01:03:24;100.93;;;52.35;;
35646;SDS011;28680;45.642;13.756;2024-01-15T01:05:50;112.28;;;53.92;;
35646;SDS011;28680;45.642;13.756;2024-01-15T01:08:16;114.65;;;55.85;;
35646;SDS011;28680;45.642;13.756;2024-01-15T01:10:42;102.28;;;51.53;;
35646;SDS011;28680;45.642;13.756;2024-01-15T01:13:10;112.05;;;55.25;;
35646;SDS011;28680;45.642;13.756;2024-01-15T01:15:36;105.53;;;53.22;;
35646;SDS011;28680;45.642;13.756;2024-01-15T01:18:02;113.63;;;56.38;;
35646;SDS011;28680;45.642;13.756;2024-01-15T01:20:28;102.13;;;52.58;;
35646;SDS011;28680;45.642;13.756;2024-01-15T01:22:54;103.10;;;52.50;;
35646;SDS011;28680;45.642;13.756;2024-01-15T01:25:19;110.60;;;53.63;;
35646;SDS011;28680;45.642;13.756;2024-01-15T01:27:45;111.90;;;54.88;;
35646;SDS011;28680;45.642;13.756;2024-01-15T01:30:11;105.55;;;53.85;;
35646;SDS011;28680;45.642;13.756;2024-01-15T01:32:37;103.72;;;51.47;;
35646;SDS011;28680;45.642;13.756;2024-01-15T01:35:03;106.05;;;54.33;;
35646;SDS011;28680;45.642;13.756;2024-01-15T01:37:29;100.15;;;51.22;;
35646;SDS011;28680;45.642;13.756;2024-01-15T01:39:54;107.97;;;53.88;;
35646;SDS011;28680;45.642;13.756;2024-01-15T01:42:20;103.82;;;51.08;;
35646;SDS011;28680;45.642;13.756;2024-01-15T01:44:46;107.32;;;54.47;;
35646;SDS011;28680;45.642;13.756;2024-01-15T01:47:12;100.55;;;50.40;;
35646;SDS011;28680;45.642;13.756;2024-01-15T01:49:39;102.95;;;50.80;;
35646;SDS011;28680;45.642;13.756;2024-01-15T01:52:06;104.18;;;52.22;;
35646;SDS011;28680;45.642;13.756;2024-01-15T01:54:34;109.20;;;54.53;;
35646;SDS011;28680;45.642;13.756;2024-01-15T01:57:02;97.30;;;50.70;;
35646;SDS011;28680;45.642;13.756;2024-01-15T01:59:30;103.78;;;51.88;;
35646;SDS011;28680;45.642;13.756;2024-01-15T02:01:57;99.40;;;51.45;;
35646;SDS011;28680;45.642;13.756;2024-01-15T02:04:24;101.78;;;50.95;;
35646;SDS011;28680;45.642;13.756;2024-01-15T02:06:50;103.70;;;52.20;;
35646;SDS011;28680;45.642;13.756;2024-01-15T02:09:17;106.10;;;53.88;;
35646;SDS011;28680;45.642;13.756;2024-01-15T02:11:43;110.88;;;56.25;;
35646;SDS011;28680;45.642;13.756;2024-01-15T02:14:12;111.65;;;54.47;;
35646;SDS011;28680;45.642;13.756;2024-01-15T02:16:38;104.30;;;52.72;;
35646;SDS011;28680;45.642;13.756;2024-01-15T02:19:04;105.30;;;53.40;;
35646;SDS011;28680;45.642;13.756;2024-01-15T02:21:31;113.40;;;55.13;;
35646;SDS011;28680;45.642;13.756;2024-01-15T02:23:57;115.75;;;56.35;;
35646;SDS011;28680;45.642;13.756;2024-01-15T02:26:23;112.10;;;57.45;;
35646;SDS011;28680;45.642;13.756;2024-01-15T02:28:50;115.55;;;59.08;;
35646;SDS011;28680;45.642;13.756;2024-01-15T02:31:16;116.50;;;58.35;;
35646;SDS011;28680;45.642;13.756;2024-01-15T02:33:43;121.18;;;59.55;;
35646;SDS011;28680;45.642;13.756;2024-01-15T02:36:11;122.55;;;60.50;;
35646;SDS011;28680;45.642;13.756;2024-01-15T02:38:37;125.72;;;60.13;;
35646;SDS011;28680;45.642;13.756;2024-01-15T02:41:03;114.18;;;59.78;;
35646;SDS011;28680;45.642;13.756;2024-01-15T02:43:29;115.07;;;58.60;;
35646;SDS011;28680;45.642;13.756;2024-01-15T02:45:55;110.32;;;55.33;;
35646;SDS011;28680;45.642;13.756;2024-01-15T02:48:20;102.05;;;51.90;;
35646;SDS011;28680;45.642;13.756;2024-01-15T02:50:46;113.55;;;55.10;;
35646;SDS011;28680;45.642;13.756;2024-01-15T02:53:12;99.22;;;52.10;;
35646;SDS011;28680;45.642;13.756;2024-01-15T02:55:38;103.57;;;52.50;;
35646;SDS011;28680;45.642;13.756;2024-01-15T02:58:04;113.13;;;55.60;;
35646;SDS011;28680;45.642;13.756;2024-01-15T03:00:29;108.35;;;54.80;;
35646;SDS011;28680;45.642;13.756;2024-01-15T03:02:56;116.65;;;56.65;;
35646;SDS011;28680;45.642;13.756;2024-01-15T03:05:22;110.30;;;56.60;;
35646;SDS011;28680;45.642;13.756;2024-01-15T03:07:47;108.25;;;55.38;;
35646;SDS011;28680;45.642;13.756;2024-01-15T03:10:13;112.35;;;56.60;;
35646;SDS011;28680;45.642;13.756;2024-01-15T03:12:39;110.13;;;54.13;;
35646;SDS011;28680;45.642;13.756;2024-01-15T03:15:05;112.82;;;56.88;;
35646;SDS011;28680;45.642;13.756;2024-01-15T03:17:31;110.78;;;56.55;;
35646;SDS011;28680;45.642;13.756;2024-01-15T03:19:57;108.57;;;55.45;;
35646;SDS011;28680;45.642;13.756;2024-01-15T03:22:23;107.75;;;55.15;;
35646;SDS011;28680;45.642;13.756;2024-01-15T03:24:49;111.30;;;55.22;;
35646;SDS011;28680;45.642;13.756;2024-01-15T03:27:14;111.93;;;55.78;;
35646;SDS011;28680;45.642;13.756;2024-01-15T03:29:40;109.00;;;54.38;;
35646;SDS011;28680;45.642;13.756;2024-01-15T03:32:06;113.80;;;55.10;;
35646;SDS011;28680;45.642;13.756;2024-01-15T03:34:32;108.35;;;55.70;;
35646;SDS011;28680;45.642;13.756;2024-01-15T03:36:58;113.20;;;56.72;;
35646;SDS011;28680;45.642;13.756;2024-01-15T03:39:24;112.18;;;57.70;;
35646;SDS011;28680;45.642;13.756;2024-01-15T03:41:50;115.45;;;58.90;;
35646;SDS011;28680;45.642;13.756;2024-01-15T03:44:16;124.07;;;61.05;;
35646;SDS011;28680;45.642;13.756;2024-01-15T03:46:41;117.00;;;58.90;;
35646;SDS011;28680;45.642;13.756;2024-01-15T03:49:07;118.18;;;60.70;;
35646;SDS011;28680;45.642;13.756;2024-01-15T03:51:33;121.68;;;60.28;;
35646;SDS011;28680;45.642;13.756;2024-01-15T03:53:59;116.30;;;59.70;;
35646;SDS011;28680;45.642;13.756;2024-01-15T03:56:24;130.73;;;61.63;;
35646;SDS011;28680;45.642;13.756;2024-01-15T03:58:50;121.97;;;62.22;;
35646;SDS011;28680;45.642;13.756;2024-01-15T04:01:16;117.18;;;58.83;;
35646;SDS011;28680;45.642;13.756;2024-01-15T04:03:42;124.30;;;61.13;;
35646;SDS011;28680;45.642;13.756;2024-01-15T04:06:07;120.75;;;58.83;;
35646;SDS011;28680;45.642;13.756;2024-01-15T04:08:33;111.47;;;57.38;;
35646;SDS011;28680;45.642;13.756;2024-01-15T04:10:59;119.20;;;58.95;;
35646;SDS011;28680;45.642;13.756;2024-01-15T04:13:26;116.97;;;58.58;;
35646;SDS011;28680;45.642;13.756;2024-01-15T04:15:52;119.50;;;58.10;;
35646;SDS011;28680;45.642;13.756;2024-01-15T04:18:18;112.82;;;56.92;;
35646;SDS011;28680;45.642;13.756;2024-01-15T04:20:44;120.38;;;61.03;;
35646;SDS011;28680;45.642;13.756;2024-01-15T04:23:10;119.22;;;59.22;;
35646;SDS011;28680;45.642;13.756;2024-01-15T04:25:36;125.22;;;63.00;;
35646;SDS011;28680;45.642;13.756;2024-01-15T04:28:01;125.43;;;62.80;;
35646;SDS011;28680;45.642;13.756;2024-01-15T04:30:27;124.47;;;61.22;;
35646;SDS011;28680;45.642;13.756;2024-01-15T04:32:53;123.65;;;62.15;;
35646;SDS011;28680;45.642;13.756;2024-01-15T04:35:19;124.85;;;61.35;;
35646;SDS011;28680;45.642;13.756;2024-01-15T04:37:45;126.82;;;62.72;;
35646;SDS011;28680;45.642;13.756;2024-01-15T04:40:10;125.00;;;63.33;;
35646;SDS011;28680;45.642;13.756;2024-01-15T04:42:36;129.30;;;61.10;;
35646;SDS011;28680;45.642;13.756;2024-01-15T04:45:02;121.78;;;60.58;;
35646;SDS011;28680;45.642;13.756;2024-01-15T04:47:28;122.43;;;60.90;;
35646;SDS011;28680;45.642;13.756;2024-01-15T04:49:54;118.53;;;60.03;;
35646;SDS011;28680;45.642;13.756;2024-01-15T04:52:20;116.57;;;59.42;;
35646;SDS011;28680;45.642;13.756;2024-01-15T04:54:46;125.53;;;60.20;;
35646;SDS011;28680;45.642;13.756;2024-01-15T04:57:11;124.95;;;60.72;;
35646;SDS011;28680;45.642;13.756;2024-01-15T04:59:37;123.43;;;61.30;;
35646;SDS011;28680;45.642;13.756;2024-01-15T05:02:03;122.15;;;62.75;;
35646;SDS011;28680;45.642;13.756;2024-01-15T05:04:29;122.35;;;62.25;;
35646;SDS011;28680;45.642;13.756;2024-01-15T05:06:55;129.88;;;65.18;;
35646;SDS011;28680;45.642;13.756;2024-01-15T05:09:21;132.82;;;64.78;;
35646;SDS011;28680;45.642;13.756;2024-01-15T05:11:46;130.80;;;63.72;;
35646;SDS011;28680;45.642;13.756;2024-01-15T05:14:12;118.07;;;60.83;;
35646;SDS011;28680;45.642;13.756;2024-01-15T05:16:38;120.97;;;60.97;;
35646;SDS011;28680;45.642;13.756;2024-01-15T05:21:32;127.65;;;64.03;;
35646;SDS011;28680;45.642;13.756;2024-01-15T05:23:58;135.00;;;66.80;;
35646;SDS011;28680;45.642;13.756;2024-01-15T05:26:24;128.98;;;65.38;;
35646;SDS011;28680;45.642;13.756;2024-01-15T05:28:50;137.50;;;65.50;;
35646;SDS011;28680;45.642;13.756;2024-01-15T05:31:15;134.75;;;67.53;;
35646;SDS011;28680;45.642;13.756;2024-01-15T05:33:41;130.00;;;65.95;;
35646;SDS011;28680;45.642;13.756;2024-01-15T05:36:07;120.32;;;62.72;;
35646;SDS011;28680;45.642;13.756;2024-01-15T05:38:33;123.30;;;61.67;;
35646;SDS011;28680;45.642;13.756;2024-01-15T05:40:58;111.88;;;56.63;;
35646;SDS011;28680;45.642;13.756;2024-01-15T05:43:24;122.80;;;59.78;;
35646;SDS011;28680;45.642;13.756;2024-01-15T05:45:51;114.70;;;57.55;;
35646;SDS011;28680;45.642;13.756;2024-01-15T05:48:17;116.75;;;58.83;;
35646;SDS011;28680;45.642;13.756;2024-01-15T05:50:42;121.32;;;58.53;;
35646;SDS011;28680;45.642;13.756;2024-01-15T05:53:08;119.65;;;60.50;;
35646;SDS011;28680;45.642;13.756;2024-01-15T05:55:35;109.30;;;55.75;;
35646;SDS011;28680;45.642;13.756;2024-01-15T05:58:02;115.65;;;56.30;;
35646;SDS011;28680;45.642;13.756;2024-01-15T06:00:28;119.35;;;58.00;;
35646;SDS011;28680;45.642;13.756;2024-01-15T06:02:54;122.82;;;58.22;;
35646;SDS011;28680;45.642;13.756;2024-01-15T06:05:20;123.25;;;58.20;;
35646;SDS011;28680;45.642;13.756;2024-01-15T06:07:46;116.15;;;57.58;;
35646;SDS011;28680;45.642;13.756;2024-01-15T06:10:12;112.45;;;56.83;;
35646;SDS011;28680;45.642;13.756;2024-01-15T06:12:37;115.43;;;58.45;;
35646;SDS011;28680;45.642;13.756;2024-01-15T06:15:03;122.03;;;58.55;;
35646;SDS011;28680;45.642;13.756;2024-01-15T06:17:29;117.53;;;57.20;;
35646;SDS011;28680;45.642;13.756;2024-01-15T06:19:56;111.22;;;55.53;;
35646;SDS011;28680;45.642;13.756;2024-01-15T06:22:22;113.70;;;58.13;;
35646;SDS011;28680;45.642;13.756;2024-01-15T06:24:48;114.80;;;58.33;;
35646;SDS011;28680;45.642;13.756;2024-01-15T06:27:14;124.68;;;62.70;;
35646;SDS011;28680;45.642;13.756;2024-01-15T06:29:44;128.25;;;61.85;;
35646;SDS011;28680;45.642;13.756;2024-01-15T06:32:11;123.22;;;61.95;;
35646;SDS011;28680;45.642;13.756;2024-01-15T06:34:36;116.90;;;58.58;;
35646;SDS011;28680;45.642;13.756;2024-01-15T06:37:02;122.15;;;62.30;;
35646;SDS011;28680;45.642;13.756;2024-01-15T06:39:28;117.63;;;59.05;;
35646;SDS011;28680;45.642;13.756;2024-01-15T06:41:54;123.18;;;58.60;;
35646;SDS011;28680;45.642;13.756;2024-01-15T06:44:20;112.30;;;54.80;;
35646;SDS011;28680;45.642;13.756;2024-01-15T06:46:46;109.85;;;54.78;;
35646;SDS011;28680;45.642;13.756;2024-01-15T06:49:13;120.05;;;58.90;;
35646;SDS011;28680;45.642;13.756;2024-01-15T06:51:39;124.05;;;57.05;;
35646;SDS011;28680;45.642;13.756;2024-01-15T06:54:05;107.57;;;53.25;;
35646;SDS011;28680;45.642;13.756;2024-01-15T06:56:31;106.25;;;53.40;;
35646;SDS011;28680;45.642;13.756;2024-01-15T06:58:57;111.43;;;54.75;;
35646;SDS011;28680;45.642;13.756;2024-01-15T07:01:22;102.70;;;52.45;;
35646;SDS011;28680;45.642;13.756;2024-01-15T07:03:48;105.80;;;53.92;;
35646;SDS011;28680;45.642;13.756;2024-01-15T07:06:14;100.75;;;50.60;;
35646;SDS011;28680;45.642;13.756;2024-01-15T07:08:41;99.45;;;49.97;;
35646;SDS011;28680;45.642;13.756;2024-01-15T07:11:06;111.70;;;54.85;;
35646;SDS011;28680;45.642;13.756;2024-01-15T07:13:32;107.93;;;53.00;;
35646;SDS011;28680;45.642;13.756;2024-01-15T07:15:59;103.75;;;51.78;;
35646;SDS011;28680;45.642;13.756;2024-01-15T07:18:25;107.55;;;52.97;;
35646;SDS011;28680;45.642;13.756;2024-01-15T07:20:51;105.18;;;51.55;;
35646;SDS011;28680;45.642;13.756;2024-01-15T07:23:16;99.68;;;50.25;;
35646;SDS011;28680;45.642;13.756;2024-01-15T07:25:43;100.18;;;50.30;;
35646;SDS011;28680;45.642;13.756;2024-01-15T07:28:09;106.00;;;51.65;;
35646;SDS011;28680;45.642;13.756;2024-01-15T07:30:36;101.68;;;50.10;;
35646;SDS011;28680;45.642;13.756;2024-01-15T07:33:04;100.45;;;50.10;;
35646;SDS011;28680;45.642;13.756;2024-01-15T07:35:30;106.38;;;52.05;;
35646;SDS011;28680;45.642;13.756;2024-01-15T07:37:57;99.57;;;48.47;;
35646;SDS011;28680;45.642;13.756;2024-01-15T07:40:22;100.93;;;49.17;;
35646;SDS011;28680;45.642;13.756;2024-01-15T07:42:50;97.90;;;48.65;;
35646;SDS011;28680;45.642;13.756;2024-01-15T07:45:16;95.05;;;48.83;;
35646;SDS011;28680;45.642;13.756;2024-01-15T07:47:42;98.53;;;50.33;;
35646;SDS011;28680;45.642;13.756;2024-01-15T07:50:09;100.35;;;49.60;;
35646;SDS011;28680;45.642;13.756;2024-01-15T07:52:35;100.78;;;50.95;;
35646;SDS011;28680;45.642;13.756;2024-01-15T07:55:01;106.25;;;51.50;;
35646;SDS011;28680;45.642;13.756;2024-01-15T07:57:29;104.75;;;52.92;;
35646;SDS011;28680;45.642;13.756;2024-01-15T07:59:54;100.18;;;50.45;;
35646;SDS011;28680;45.642;13.756;2024-01-15T08:02:20;99.78;;;51.40;;
35646;SDS011;28680;45.642;13.756;2024-01-15T08:04:47;101.70;;;52.53;;
35646;SDS011;28680;45.642;13.756;2024-01-15T08:07:13;99.30;;;50.85;;
35646;SDS011;28680;45.642;13.756;2024-01-15T08:09:40;115.72;;;54.40;;
35646;SDS011;28680;45.642;13.756;2024-01-15T08:12:07;105.07;;;50.08;;
35646;SDS011;28680;45.642;13.756;2024-01-15T08:14:33;86.45;;;46.25;;
35646;SDS011;28680;45.642;13.756;2024-01-15T08:16:59;93.07;;;47.10;;
35646;SDS011;28680;45.642;13.756;2024-01-15T08:19:24;86.35;;;45.25;;
35646;SDS011;28680;45.642;13.756;2024-01-15T08:21:50;89.63;;;46.03;;
35646;SDS011;28680;45.642;13.756;2024-01-15T08:24:16;90.90;;;46.88;;
35646;SDS011;28680;45.642;13.756;2024-01-15T08:26:42;89.70;;;46.03;;
35646;SDS011;28680;45.642;13.756;2024-01-15T08:29:08;94.65;;;46.88;;
35646;SDS011;28680;45.642;13.756;2024-01-15T08:31:34;98.82;;;47.67;;
35646;SDS011;28680;45.642;13.756;2024-01-15T08:34:00;93.03;;;47.13;;
35646;SDS011;28680;45.642;13.756;2024-01-15T08:36:27;89.28;;;46.95;;
35646;SDS011;28680;45.642;13.756;2024-01-15T08:38:54;89.60;;;45.03;;
35646;SDS011;28680;45.642;13.756;2024-01-15T08:41:20;94.38;;;47.17;;
35646;SDS011;28680;45.642;13.756;2024-01-15T08:43:46;91.10;;;47.00;;
35646;SDS011;28680;45.642;13.756;2024-01-15T08:46:12;94.72;;;47.85;;
35646;SDS011;28680;45.642;13.756;2024-01-15T08:48:38;96.22;;;47.85;;
35646;SDS011;28680;45.642;13.756;2024-01-15T08:51:04;88.10;;;47.08;;
35646;SDS011;28680;45.642;13.756;2024-01-15T08:53:31;94.32;;;47.95;;
35646;SDS011;28680;45.642;13.756;2024-01-15T08:55:57;105.63;;;50.15;;
35646;SDS011;28680;45.642;13.756;2024-01-15T08:58:23;93.57;;;47.92;;
35646;SDS011;28680;45.642;13.756;2024-01-15T09:00:49;94.50;;;48.67;;
35646;SDS011;28680;45.642;13.756;2024-01-15T09:03:16;100.28;;;50.75;;
35646;SDS011;28680;45.642;13.756;2024-01-15T09:05:41;98.03;;;52.25;;
35646;SDS011;28680;45.642;13.756;2024-01-15T09:08:08;97.35;;;50.25;;
35646;SDS011;28680;45.642;13.756;2024-01-15T09:10:34;97.50;;;50.58;;
35646;SDS011;28680;45.642;13.756;2024-01-15T09:13:00;108.25;;;53.53;;
35646;SDS011;28680;45.642;13.756;2024-01-15T09:15:25;101.25;;;51.17;;
35646;SDS011;28680;45.642;13.756;2024-01-15T09:17:51;93.45;;;48.92;;
35646;SDS011;28680;45.642;13.756;2024-01-15T09:20:17;81.38;;;43.72;;
35646;SDS011;28680;45.642;13.756;2024-01-15T09:22:43;72.03;;;38.70;;
35646;SDS011;28680;45.642;13.756;2024-01-15T09:25:10;70.68;;;37.63;;
35646;SDS011;28680;45.642;13.756;2024-01-15T09:27:36;71.78;;;37.90;;
35646;SDS011;28680;45.642;13.756;2024-01-15T09:30:03;67.10;;;37.85;;
35646;SDS011;28680;45.642;13.756;2024-01-15T09:32:30;72.07;;;38.25;;
35646;SDS011;28680;45.642;13.756;2024-01-15T09:34:55;67.65;;;37.70;;
35646;SDS011;28680;45.642;13.756;2024-01-15T09:37:21;69.70;;;36.70;;
35646;SDS011;28680;45.642;13.756;2024-01-15T09:39:48;72.75;;;38.20;;
35646;SDS011;28680;45.642;13.756;2024-01-15T09:42:15;72.90;;;36.40;;
35646;SDS011;28680;45.642;13.756;2024-01-15T09:44:41;73.00;;;36.13;;
35646;SDS011;28680;45.642;13.756;2024-01-15T09:47:07;64.40;;;35.53;;
35646;SDS011;28680;45.642;13.756;2024-01-15T09:49:34;64.93;;;33.35;;
35646;SDS011;28680;45.642;13.756;2024-01-15T09:52:00;65.53;;;35.83;;
35646;SDS011;28680;45.642;13.756;2024-01-15T09:54:27;66.43;;;35.75;;
35646;SDS011;28680;45.642;13.756;2024-01-15T09:56:53;60.80;;;33.42;;
35646;SDS011;28680;45.642;13.756;2024-01-15T09:59:20;67.88;;;33.90;;
35646;SDS011;28680;45.642;13.756;2024-01-15T10:01:48;66.72;;;33.58;;
35646;SDS011;28680;45.642;13.756;2024-01-15T10:04:16;61.10;;;34.03;;
35646;SDS011;28680;45.642;13.756;2024-01-15T10:06:43;63.53;;;32.97;;
35646;SDS011;28680;45.642;13.756;2024-01-15T10:09:13;59.80;;;31.33;;
35646;SDS011;28680;45.642;13.756;2024-01-15T10:11:42;64.07;;;33.72;;
35646;SDS011;28680;45.642;13.756;2024-01-15T10:14:09;61.83;;;33.88;;
35646;SDS011;28680;45.642;13.756;2024-01-15T10:16:40;61.35;;;32.72;;
35646;SDS011;28680;45.642;13.756;2024-01-15T10:19:09;63.05;;;31.73;;
35646;SDS011;28680;45.642;13.756;2024-01-15T10:21:35;58.63;;;32.47;;
35646;SDS011;28680;45.642;13.756;2024-01-15T10:24:02;60.00;;;31.50;;
35646;SDS011;28680;45.642;13.756;2024-01-15T10:26:29;62.67;;;32.15;;
35646;SDS011;28680;45.642;13.756;2024-01-15T10:28:56;61.53;;;32.30;;
35646;SDS011;28680;45.642;13.756;2024-01-15T10:31:23;64.97;;;32.83;;
35646;SDS011;28680;45.642;13.756;2024-01-15T10:33:50;60.92;;;33.88;;
35646;SDS011;28680;45.642;13.756;2024-01-15T10:36:16;62.50;;;32.78;;
35646;SDS011;28680;45.642;13.756;2024-01-15T10:38:43;67.57;;;34.40;;
35646;SDS011;28680;45.642;13.756;2024-01-15T10:41:09;60.05;;;32.22;;
35646;SDS011;28680;45.642;13.756;2024-01-15T10:43:35;58.90;;;31.52;;
35646;SDS011;28680;45.642;13.756;2024-01-15T10:46:01;61.03;;;32.55;;
35646;SDS011;28680;45.642;13.756;2024-01-15T10:48:28;60.00;;;31.35;;
35646;SDS011;28680;45.642;13.756;2024-01-15T10:50:56;63.75;;;32.55;;
35646;SDS011;28680;45.642;13.756;2024-01-15T10:53:23;60.20;;;32.45;;
35646;SDS011;28680;45.642;13.756;2024-01-15T10:55:53;63.15;;;32.67;;
35646;SDS011;28680;45.642;13.756;2024-01-15T10:58:21;63.20;;;31.25;;
35646;SDS011;28680;45.642;13.756;2024-01-15T11:00:48;63.97;;;33.40;;
35646;SDS011;28680;45.642;13.756;2024-01-15T11:03:14;52.78;;;29.02;;
35646;SDS011;28680;45.642;13.756;2024-01-15T11:05:43;57.60;;;31.02;;
35646;SDS011;28680;45.642;13.756;2024-01-15T11:08:09;61.35;;;32.88;;
35646;SDS011;28680;45.642;13.756;2024-01-15T11:18:34;60.88;;;31.80;;
35646;SDS011;28680;45.642;13.756;2024-01-15T11:23:46;61.72;;;32.97;;
35646;SDS011;28680;45.642;13.756;2024-01-15T11:26:59;63.50;;;34.55;;
35646;SDS011;28680;45.642;13.756;2024-01-15T11:29:06;60.15;;;33.83;;
35646;SDS011;28680;45.642;13.756;2024-01-15T11:34:08;62.75;;;31.90;;
35646;SDS011;28680;45.642;13.756;2024-01-15T11:41:54;54.75;;;29.92;;
35646;SDS011;28680;45.642;13.756;2024-01-15T11:44:20;46.97;;;23.65;;
35646;SDS011;28680;45.642;13.756;2024-01-15T11:52:30;38.03;;;18.20;;
35646;SDS011;28680;45.642;13.756;2024-01-15T11:55:11;35.42;;;19.52;;
35646;SDS011;28680;45.642;13.756;2024-01-15T12:00:12;32.95;;;16.95;;
35646;SDS011;28680;45.642;13.756;2024-01-15T12:02:40;32.05;;;17.20;;
35646;SDS011;28680;45.642;13.756;2024-01-15T12:05:07;33.17;;;17.73;;
35646;SDS011;28680;45.642;13.756;2024-01-15T12:07:34;34.60;;;17.08;;
35646;SDS011;28680;45.642;13.756;2024-01-15T12:10:00;31.73;;;17.30;;
35646;SDS011;28680;45.642;13.756;2024-01-15T12:13:09;31.17;;;17.52;;
35646;SDS011;28680;45.642;13.756;2024-01-15T12:15:15;35.10;;;18.83;;
35646;SDS011;28680;45.642;13.756;2024-01-15T12:17:43;31.58;;;17.02;;
35646;SDS011;28680;45.642;13.756;2024-01-15T12:20:10;33.33;;;17.95;;
35646;SDS011;28680;45.642;13.756;2024-01-15T12:22:37;34.45;;;18.70;;
35646;SDS011;28680;45.642;13.756;2024-01-15T12:25:03;33.70;;;18.80;;
35646;SDS011;28680;45.642;13.756;2024-01-15T12:27:29;25.58;;;14.23;;
35646;SDS011;28680;45.642;13.756;2024-01-15T12:29:55;28.98;;;15.23;;
35646;SDS011;28680;45.642;13.756;2024-01-15T12:32:24;28.30;;;14.38;;
35646;SDS011;28680;45.642;13.756;2024-01-15T12:34:50;27.35;;;13.70;;
35646;SDS011;28680;45.642;13.756;2024-01-15T12:37:19;28.50;;;14.52;;
35646;SDS011;28680;45.642;13.756;2024-01-15T12:39:45;25.25;;;12.90;;
35646;SDS011;28680;45.642;13.756;2024-01-15T12:42:11;25.33;;;13.55;;
35646;SDS011;28680;45.642;13.756;2024-01-15T12:44:39;25.92;;;13.65;;
35646;SDS011;28680;45.642;13.756;2024-01-15T12:47:06;21.50;;;12.50;;
35646;SDS011;28680;45.642;13.756;2024-01-15T12:49:32;22.83;;;11.35;;
35646;SDS011;28680;45.642;13.756;2024-01-15T12:51:58;23.95;;;12.80;;
35646;SDS011;28680;45.642;13.756;2024-01-15T12:54:24;28.85;;;13.80;;
35646;SDS011;28680;45.642;13.756;2024-01-15T12:56:51;23.02;;;12.00;;
35646;SDS011;28680;45.642;13.756;2024-01-15T12:59:17;27.70;;;14.10;;
35646;SDS011;28680;45.642;13.756;2024-01-15T13:01:43;22.95;;;11.95;;
35646;SDS011;28680;45.642;13.756;2024-01-15T13:04:10;22.52;;;12.13;;
35646;SDS011;28680;45.642;13.756;2024-01-15T13:06:36;23.15;;;11.90;;
35646;SDS011;28680;45.642;13.756;2024-01-15T13:09:05;25.27;;;12.88;;
35646;SDS011;28680;45.642;13.756;2024-01-15T13:11:31;24.38;;;11.40;;
35646;SDS011;28680;45.642;13.756;2024-01-15T13:13:57;22.58;;;12.52;;
35646;SDS011;28680;45.642;13.756;2024-01-15T13:16:23;25.48;;;12.13;;
35646;SDS011;28680;45.642;13.756;2024-01-15T13:18:52;25.70;;;13.50;;
35646;SDS011;28680;45.642;13.756;2024-01-15T13:21:17;23.50;;;13.38;;
35646;SDS011;28680;45.642;13.756;2024-01-15T13:23:43;26.42;;;13.55;;
35646;SDS011;28680;45.642;13.756;2024-01-15T13:26:09;22.58;;;11.95;;
35646;SDS011;28680;45.642;13.756;2024-01-15T13:28:35;24.63;;;12.52;;
35646;SDS011;28680;45.642;13.756;2024-01-15T13:31:00;26.85;;;13.93;;
35646;SDS011;28680;45.642;13.756;2024-01-15T13:33:27;24.38;;;13.02;;
35646;SDS011;28680;45.642;13.756;2024-01-15T13:35:53;29.55;;;13.80;;
35646;SDS011;28680;45.642;13.756;2024-01-15T13:38:19;27.42;;;13.02;;
35646;SDS011;28680;45.642;13.756;2024-01-15T13:40:44;24.70;;;13.15;;
35646;SDS011;28680;45.642;13.756;2024-01-15T13:43:11;21.40;;;11.43;;
35646;SDS011;28680;45.642;13.756;2024-01-15T13:45:37;24.50;;;13.48;;
35646;SDS011;28680;45.642;13.756;2024-01-15T13:48:03;22.88;;;12.90;;
35646;SDS011;28680;45.642;13.756;2024-01-15T13:50:31;27.90;;;14.38;;
35646;SDS011;28680;45.642;13.756;2024-01-15T13:52:57;34.15;;;18.98;;
35646;SDS011;28680;45.642;13.756;2024-01-15T13:55:22;28.98;;;16.15;;
35646;SDS011;28680;45.642;13.756;2024-01-15T13:57:48;27.88;;;15.38;;
35646;SDS011;28680;45.642;13.756;2024-01-15T14:00:14;30.77;;;16.98;;
35646;SDS011;28680;45.642;13.756;2024-01-15T14:02:44;32.58;;;17.33;;
35646;SDS011;28680;45.642;13.756;2024-01-15T14:05:09;30.63;;;16.83;;
35646;SDS011;28680;45.642;13.756;2024-01-15T14:07:40;35.58;;;17.70;;
35646;SDS011;28680;45.642;13.756;2024-01-15T14:10:08;37.05;;;17.52;;
35646;SDS011;28680;45.642;13.756;2024-01-15T14:12:35;29.35;;;16.42;;
35646;SDS011;28680;45.642;13.756;2024-01-15T14:15:02;30.92;;;16.25;;
35646;SDS011;28680;45.642;13.756;2024-01-15T14:17:28;32.15;;;16.95;;
35646;SDS011;28680;45.642;13.756;2024-01-15T14:19:54;32.30;;;16.33;;
35646;SDS011;28680;45.642;13.756;2024-01-15T14:22:20;29.95;;;16.55;;
35646;SDS011;28680;45.642;13.756;2024-01-15T14:24:46;34.97;;;16.80;;